createdAt,value
2018-09-21T00:00:00.834Z,13.45
2018-09-21T00:02:29.941Z,12.95
2018-09-21T00:04:59.079Z,11.93
2018-09-21T00:07:28.034Z,11.30
2018-09-21T00:09:57.015Z,13.15
2018-09-21T00:12:26.103Z,12.40
2018-09-21T00:14:55.087Z,13.22
2018-09-21T00:17:24.133Z,11.05
2018-09-21T00:19:53.261Z,11.28
2018-09-21T00:22:22.235Z,12.28
2018-09-21T00:24:51.709Z,13.58
2018-09-21T00:27:20.791Z,11.97
2018-09-21T00:29:49.893Z,11.95
2018-09-21T00:32:18.875Z,11.73
2018-09-21T00:34:47.910Z,14.83
2018-09-21T00:37:16.942Z,12.80
2018-09-21T00:39:45.995Z,12.95
2018-09-21T00:42:15.026Z,11.93
2018-09-21T00:44:44.022Z,13.68
2018-09-21T00:47:13.010Z,12.65
2018-09-21T00:49:42.189Z,12.65
2018-09-21T00:52:16.983Z,15.48
2018-09-21T00:54:46.102Z,13.95
2018-09-21T00:57:16.578Z,13.45
2018-09-21T00:59:45.824Z,13.48
2018-09-21T01:02:14.861Z,14.45
2018-09-21T01:04:44.898Z,14.90
2018-09-21T01:07:15.254Z,15.10
2018-09-21T01:09:44.735Z,14.35
2018-09-21T01:12:13.751Z,13.40
2018-09-21T01:14:42.818Z,14.55
2018-09-21T01:17:11.791Z,16.17
2018-09-21T01:19:41.188Z,15.72
2018-09-21T01:22:10.233Z,15.40
2018-09-21T01:24:39.239Z,14.47
2018-09-21T01:27:08.346Z,12.53
2018-09-21T01:29:37.439Z,15.00
2018-09-21T01:32:06.993Z,16.93
2018-09-21T01:34:35.996Z,16.80
2018-09-21T01:37:05.194Z,14.35
2018-09-21T01:39:34.186Z,15.10
2018-09-21T01:42:03.752Z,15.00
2018-09-21T01:44:32.793Z,14.23
2018-09-21T01:47:01.822Z,15.93
2018-09-21T01:49:30.859Z,15.68
2018-09-21T01:51:59.924Z,14.25
2018-09-21T01:54:36.984Z,16.87
2018-09-21T01:57:06.074Z,15.58
2018-09-21T01:59:35.352Z,15.15
2018-09-21T02:02:04.423Z,16.15
2018-09-21T02:04:38.443Z,14.28
2018-09-21T02:07:09.323Z,16.93
2018-09-21T02:09:38.720Z,17.15
2018-09-21T02:12:07.809Z,17.50
2018-09-21T02:14:37.694Z,16.15
2018-09-21T02:17:06.831Z,16.00
2018-09-21T02:19:35.933Z,17.00
2018-09-21T02:22:04.929Z,16.73
2018-09-21T02:24:33.950Z,17.65
2018-09-21T02:27:03.557Z,16.70
2018-09-21T02:29:32.525Z,16.55
2018-09-21T02:32:01.587Z,17.32
2018-09-21T02:34:30.518Z,15.95
2018-09-21T02:36:59.579Z,16.90
2018-09-21T02:39:28.608Z,18.23
2018-09-21T02:41:57.606Z,17.75
2018-09-21T02:44:26.575Z,16.80
2018-09-21T02:46:55.638Z,17.55
2018-09-21T02:49:24.673Z,18.00
2018-09-21T02:51:53.648Z,16.93
2018-09-21T02:54:22.739Z,17.57
2018-09-21T02:56:51.745Z,18.10
2018-09-21T02:59:20.772Z,19.20
2018-09-21T03:01:49.826Z,17.75
2018-09-21T03:04:18.805Z,19.73
2018-09-21T03:06:47.766Z,17.40
2018-09-21T03:09:16.816Z,18.52
2018-09-21T03:11:45.803Z,18.12
2018-09-21T03:14:14.876Z,19.27
2018-09-21T03:16:43.923Z,17.73
2018-09-21T03:19:12.930Z,18.30
2018-09-21T03:21:41.897Z,17.60
2018-09-21T03:24:10.927Z,18.50
2018-09-21T03:26:39.890Z,17.20
2018-09-21T03:29:08.819Z,16.80
2018-09-21T03:31:37.926Z,17.23
2018-09-21T03:34:06.891Z,17.62
2018-09-21T03:36:35.858Z,16.77
2018-09-21T03:39:06.620Z,16.27
2018-09-21T03:41:35.644Z,18.00
2018-09-21T03:44:04.631Z,18.45
2018-09-21T03:46:33.695Z,18.87
2018-09-21T03:49:02.761Z,17.65
2018-09-21T03:51:31.735Z,18.23
2018-09-21T03:54:00.778Z,16.90
2018-09-21T03:56:29.701Z,17.00
2018-09-21T03:58:58.682Z,17.52
2018-09-21T04:01:27.729Z,17.12
2018-09-21T04:03:56.732Z,18.65
2018-09-21T04:06:25.690Z,18.17
2018-09-21T04:08:54.814Z,18.52
2018-09-21T04:11:23.943Z,17.50
2018-09-21T04:13:52.920Z,17.40
2018-09-21T04:16:21.938Z,20.80
2018-09-21T04:18:50.947Z,18.57
2018-09-21T04:21:19.906Z,17.40
2018-09-21T04:23:48.915Z,19.10
2018-09-21T04:26:17.866Z,18.50
2018-09-21T04:28:46.839Z,19.15
2018-09-21T04:31:15.914Z,15.90
2018-09-21T04:33:44.911Z,19.48
2018-09-21T04:36:13.898Z,18.77
2018-09-21T04:38:43.025Z,17.55
2018-09-21T04:41:11.991Z,17.62
2018-09-21T04:43:40.960Z,18.45
2018-09-21T04:46:10.332Z,18.60
2018-09-21T04:48:39.301Z,17.85
2018-09-21T04:51:08.350Z,19.17
2018-09-21T04:53:37.409Z,18.48
2018-09-21T04:56:06.795Z,17.65
2018-09-21T04:58:35.783Z,18.70
2018-09-21T05:01:04.852Z,19.67
2018-09-21T05:03:34.141Z,18.82
2018-09-21T05:06:03.462Z,16.73
2018-09-21T05:08:32.635Z,17.73
2018-09-21T05:11:01.927Z,17.00
2018-09-21T05:13:30.914Z,16.85
2018-09-21T05:15:59.987Z,16.50
2018-09-21T05:18:29.061Z,16.50
2018-09-21T05:20:58.017Z,15.28
2018-09-21T05:23:26.981Z,14.70
2018-09-21T05:25:55.913Z,16.02
2018-09-21T05:28:24.813Z,15.35
2018-09-21T05:30:53.800Z,13.98
2018-09-21T05:33:22.734Z,12.98
2018-09-21T05:35:51.658Z,14.20
2018-09-21T05:38:20.614Z,13.75
2018-09-21T05:40:49.537Z,12.82
2018-09-21T05:43:18.433Z,12.30
2018-09-21T05:45:47.359Z,13.28
2018-09-21T05:48:16.253Z,14.98
2018-09-21T05:50:45.932Z,11.83
2018-09-21T05:53:14.865Z,11.15
2018-09-21T05:55:43.758Z,12.53
2018-09-21T05:58:12.687Z,10.90
2018-09-21T06:00:41.623Z,11.83
2018-09-21T06:03:10.526Z,10.65
2018-09-21T06:05:39.400Z,10.55
2018-09-21T06:08:08.944Z,11.95
2018-09-21T06:10:37.875Z,11.97
2018-09-21T06:13:07.338Z,13.65
2018-09-21T06:15:36.289Z,10.38
2018-09-21T06:18:05.213Z,11.78
2018-09-21T06:20:34.122Z,10.93
2018-09-21T06:23:03.128Z,11.50
2018-09-21T06:25:32.039Z,10.55
2018-09-21T06:28:00.920Z,11.35
2018-09-21T06:30:29.985Z,10.35
2018-09-21T06:32:58.881Z,10.50
2018-09-21T06:35:27.762Z,8.73
2018-09-21T06:37:56.804Z,10.10
2018-09-21T06:40:26.105Z,9.28
2018-09-21T06:42:55.022Z,8.90
2018-09-21T06:45:24.331Z,9.17
2018-09-21T06:47:53.225Z,9.97
2018-09-21T06:50:22.136Z,7.70
2018-09-21T06:52:51.166Z,9.43
2018-09-21T06:55:20.111Z,8.87
2018-09-21T06:57:49.073Z,8.93
2018-09-21T07:00:18.016Z,9.10
2018-09-21T07:02:46.943Z,9.17
2018-09-21T07:05:17.872Z,8.30
2018-09-21T07:07:46.900Z,9.30
2018-09-21T07:10:15.851Z,9.67
2018-09-21T07:12:44.883Z,9.20
2018-09-21T07:15:13.820Z,7.90
2018-09-21T07:17:43.035Z,9.80
2018-09-21T07:20:12.045Z,8.93
2018-09-21T07:22:40.954Z,9.20
2018-09-21T07:25:09.935Z,9.10
2018-09-21T07:27:38.881Z,8.30
2018-09-21T07:30:07.884Z,8.70
2018-09-21T07:32:36.830Z,7.97
2018-09-21T07:35:05.835Z,7.77
2018-09-21T07:37:34.820Z,6.87
2018-09-21T07:40:04.411Z,8.13
2018-09-21T07:42:33.375Z,7.20
2018-09-21T07:45:02.294Z,8.30
2018-09-21T07:47:31.165Z,7.73
2018-09-21T07:50:00.099Z,7.70
2018-09-21T07:52:29.049Z,7.57
2018-09-21T07:54:58.050Z,7.73
2018-09-21T07:57:27.038Z,8.00
2018-09-21T07:59:55.944Z,6.80
2018-09-21T08:02:24.890Z,7.00
2018-09-21T08:04:53.839Z,6.83
2018-09-21T08:07:22.726Z,8.27
2018-09-21T08:09:51.707Z,6.73
2018-09-21T08:12:20.892Z,6.53
2018-09-21T08:14:49.822Z,7.10
2018-09-21T08:17:18.671Z,7.70
2018-09-21T08:19:47.648Z,7.83
2018-09-21T08:22:16.531Z,7.00
2018-09-21T08:24:45.419Z,6.40
2018-09-21T08:27:17.320Z,7.73
2018-09-21T08:29:46.193Z,5.63
2018-09-21T08:32:15.150Z,7.00
2018-09-21T08:34:44.211Z,6.90
2018-09-21T08:37:13.240Z,6.87
2018-09-21T08:39:42.139Z,6.60
2018-09-21T08:42:11.119Z,6.63
2018-09-21T08:44:40.068Z,7.27
2018-09-21T08:47:08.987Z,6.20
2018-09-21T08:49:37.972Z,6.60
2018-09-21T08:52:06.908Z,6.13
2018-09-21T08:54:35.819Z,6.87
2018-09-21T08:57:04.811Z,6.90
2018-09-21T08:59:33.732Z,6.60
2018-09-21T09:02:02.625Z,5.50
2018-09-21T09:04:31.567Z,6.20
2018-09-21T09:07:00.550Z,6.97
2018-09-21T09:09:29.483Z,7.03
2018-09-21T09:11:58.538Z,7.70
2018-09-21T09:14:27.443Z,6.50
2018-09-21T09:16:56.346Z,6.27
2018-09-21T09:19:25.321Z,7.00
2018-09-21T09:21:54.203Z,6.43
2018-09-21T09:24:23.072Z,6.87
2018-09-21T09:26:52.032Z,6.60
2018-09-21T09:29:20.963Z,6.93
2018-09-21T09:31:49.931Z,7.07
2018-09-21T09:34:18.968Z,6.50
2018-09-21T09:36:47.928Z,6.13
2018-09-21T09:39:16.915Z,6.93
2018-09-21T09:41:45.947Z,6.50
2018-09-21T09:44:14.828Z,6.78
2018-09-21T09:46:43.724Z,6.15
2018-09-21T09:49:12.693Z,6.57
2018-09-21T09:51:41.649Z,5.58
2018-09-21T09:54:10.529Z,7.28
2018-09-21T09:56:39.509Z,5.55
2018-09-21T09:59:08.414Z,6.28
2018-09-21T10:01:37.298Z,6.42
2018-09-21T10:04:06.361Z,6.30
2018-09-21T10:06:35.258Z,6.10
2018-09-21T10:09:05.359Z,6.78
2018-09-21T10:11:34.338Z,6.12
2018-09-21T10:14:03.330Z,6.03
2018-09-21T10:16:32.307Z,6.17
2018-09-21T10:19:01.531Z,6.60
2018-09-21T10:21:30.521Z,5.45
2018-09-21T10:23:59.609Z,5.80
2018-09-21T10:26:28.615Z,5.40
2018-09-21T10:28:57.539Z,5.30
2018-09-21T10:31:26.466Z,5.90
2018-09-21T10:33:55.407Z,6.28
2018-09-21T10:36:24.458Z,5.75
2018-09-21T10:38:53.476Z,4.72
2018-09-21T10:41:22.418Z,4.83
2018-09-21T10:43:51.415Z,4.92
2018-09-21T10:46:20.327Z,4.47
2018-09-21T10:48:49.333Z,5.95
2018-09-21T10:51:18.224Z,5.50
2018-09-21T10:53:47.747Z,5.22
2018-09-21T10:56:16.848Z,5.12
2018-09-21T10:58:45.825Z,5.45
2018-09-21T11:01:14.751Z,4.62
2018-09-21T11:03:43.717Z,5.35
2018-09-21T11:06:12.616Z,5.00
2018-09-21T11:08:41.635Z,5.35
2018-09-21T11:11:10.596Z,5.45
2018-09-21T11:13:39.520Z,4.83
2018-09-21T11:16:08.433Z,5.62
2018-09-21T11:18:37.401Z,5.58
2018-09-21T11:21:06.351Z,5.53
2018-09-21T11:23:35.290Z,5.25
2018-09-21T11:26:04.251Z,4.95
2018-09-21T11:28:33.167Z,4.87
2018-09-21T11:31:02.069Z,4.65
2018-09-21T11:33:31.055Z,5.30
2018-09-21T11:36:00.663Z,5.15
2018-09-21T11:38:29.554Z,5.53
2018-09-21T11:40:58.597Z,5.72
2018-09-21T11:43:27.622Z,5.05
2018-09-21T11:45:56.521Z,4.58
2018-09-21T11:48:25.571Z,6.25
2018-09-21T11:50:54.567Z,5.58
2018-09-21T11:53:23.626Z,6.15
2018-09-21T11:55:52.584Z,5.72
2018-09-21T11:58:21.539Z,5.33
2018-09-21T12:00:50.536Z,5.80
2018-09-21T12:03:19.508Z,6.00
2018-09-21T12:05:48.359Z,6.30
2018-09-21T12:08:17.289Z,4.80
2018-09-21T12:10:46.285Z,6.07
2018-09-21T12:13:15.229Z,6.10
2018-09-21T12:15:44.120Z,6.35
2018-09-21T12:18:13.070Z,6.30
2018-09-21T12:20:42.001Z,5.50
2018-09-21T12:23:10.917Z,6.60
2018-09-21T12:25:39.867Z,6.15
2018-09-21T12:28:08.749Z,5.58
2018-09-21T12:30:37.692Z,6.40
2018-09-21T12:33:07.003Z,5.65
2018-09-21T12:35:35.976Z,5.75
2018-09-21T12:38:04.912Z,7.03
2018-09-21T12:40:33.858Z,5.60
2018-09-21T12:43:02.793Z,5.58
2018-09-21T12:45:31.708Z,7.30
2018-09-21T12:48:00.671Z,7.05
2018-09-21T12:50:29.665Z,6.12
2018-09-21T12:52:58.522Z,5.90
2018-09-21T12:55:27.470Z,6.90
2018-09-21T12:57:56.432Z,6.95
2018-09-21T13:00:25.430Z,7.20
2018-09-21T13:02:54.380Z,6.53
2018-09-21T13:05:23.345Z,6.70
2018-09-21T13:07:52.234Z,6.50
2018-09-21T13:10:21.280Z,6.55
2018-09-21T13:12:50.227Z,6.65
2018-09-21T13:15:19.116Z,6.70
2018-09-21T13:17:48.115Z,6.30
2018-09-21T13:20:16.995Z,7.03
2018-09-21T13:22:45.884Z,7.60
2018-09-21T13:25:14.845Z,6.65
2018-09-21T13:27:43.775Z,6.03
2018-09-21T13:30:12.653Z,6.10
2018-09-21T13:32:41.581Z,5.80
2018-09-21T13:35:10.543Z,7.20
2018-09-21T13:37:39.468Z,6.10
2018-09-21T13:40:08.413Z,6.40
2018-09-21T13:42:37.391Z,6.13
2018-09-21T13:45:06.527Z,7.12
2018-09-21T13:47:35.539Z,6.47
2018-09-21T13:50:04.554Z,6.58
2018-09-21T13:52:33.487Z,6.60
2018-09-21T13:55:02.442Z,6.42
2018-09-21T13:57:31.350Z,6.40
2018-09-21T14:00:00.279Z,6.80
2018-09-21T14:02:29.246Z,6.43
2018-09-21T14:04:58.125Z,6.62
2018-09-21T14:07:27.039Z,7.50
2018-09-21T14:09:56.705Z,6.33
2018-09-21T14:12:25.612Z,6.67
2018-09-21T14:14:54.522Z,5.73
2018-09-21T14:17:23.495Z,6.62
2018-09-21T14:19:52.392Z,7.37
2018-09-21T14:22:21.303Z,6.08
2018-09-21T14:24:50.351Z,6.75
2018-09-21T14:27:20.459Z,6.65
2018-09-21T14:29:49.552Z,6.80
2018-09-21T14:32:18.495Z,6.08
2018-09-21T14:34:47.822Z,6.62
2018-09-21T14:37:16.780Z,6.15
2018-09-21T14:39:45.738Z,6.60
2018-09-21T14:42:15.559Z,5.50
2018-09-21T14:44:44.559Z,6.90
2018-09-21T14:47:13.643Z,5.72
2018-09-21T14:49:42.705Z,6.12
2018-09-21T14:52:11.696Z,6.50
2018-09-21T14:54:40.667Z,7.08
2018-09-21T14:57:09.567Z,7.37
2018-09-21T14:59:38.493Z,6.70
2018-09-21T15:02:07.698Z,7.22
2018-09-21T15:04:36.639Z,7.30
2018-09-21T15:07:05.554Z,7.05
2018-09-21T15:09:34.518Z,6.97
2018-09-21T15:12:03.512Z,7.65
2018-09-21T15:14:34.314Z,6.65
2018-09-21T15:17:03.403Z,7.40
2018-09-21T15:19:32.311Z,7.50
2018-09-21T15:22:01.214Z,6.33
2018-09-21T15:24:30.129Z,7.65
2018-09-21T15:26:59.036Z,7.00
2018-09-21T15:29:27.955Z,7.10
2018-09-21T15:31:58.487Z,7.35
2018-09-21T15:34:27.469Z,6.97
2018-09-21T15:36:56.383Z,6.58
2018-09-21T15:39:25.386Z,6.35
2018-09-21T15:41:54.314Z,7.70
2018-09-21T15:44:23.358Z,6.58
2018-09-21T15:46:52.291Z,6.35
2018-09-21T15:49:21.296Z,6.05
2018-09-21T15:51:50.288Z,7.28
2018-09-21T15:54:19.220Z,6.12
2018-09-21T15:56:49.153Z,5.97
2018-09-21T15:59:18.079Z,5.90
2018-09-21T16:01:47.091Z,6.35
2018-09-21T16:04:17.007Z,5.67
2018-09-21T16:06:45.972Z,7.05
2018-09-21T16:09:14.930Z,7.12
2018-09-21T16:11:45.401Z,7.60
2018-09-21T16:14:14.389Z,6.62
2018-09-21T16:16:43.431Z,6.20
2018-09-21T16:19:12.391Z,6.15
2018-09-21T16:21:41.303Z,6.90
2018-09-21T16:24:10.292Z,6.10
2018-09-21T16:26:39.205Z,6.90
2018-09-21T16:29:08.128Z,5.97
2018-09-21T16:31:37.079Z,6.58
2018-09-21T16:34:06.088Z,6.17
2018-09-21T16:36:35.044Z,6.78
2018-09-21T16:39:04.489Z,7.10
2018-09-21T16:41:33.466Z,6.37
2018-09-21T16:44:02.778Z,5.83
2018-09-21T16:46:31.837Z,6.35
2018-09-21T16:49:00.824Z,6.75
2018-09-21T16:51:29.785Z,7.17
2018-09-21T16:53:58.816Z,6.47
2018-09-21T16:56:27.744Z,7.20
2018-09-21T16:58:56.743Z,6.92
2018-09-21T17:01:25.776Z,5.80
2018-09-21T17:03:54.799Z,6.45
2018-09-21T17:06:23.763Z,7.10
2018-09-21T17:08:52.773Z,7.75
2018-09-21T17:11:22.923Z,7.33
2018-09-21T17:13:51.947Z,6.60
2018-09-21T17:16:21.067Z,7.10
2018-09-21T17:18:50.103Z,7.90
2018-09-21T17:21:19.065Z,7.00
2018-09-21T17:23:48.027Z,6.00
2018-09-21T17:26:16.960Z,6.67
2018-09-21T17:28:46.049Z,7.40
2018-09-21T17:31:16.171Z,6.47
2018-09-21T17:33:45.060Z,7.80
2018-09-21T17:36:14.826Z,7.08
2018-09-21T17:38:43.758Z,7.70
2018-09-21T17:41:12.653Z,7.80
2018-09-21T17:43:41.651Z,6.95
2018-09-21T17:46:10.639Z,7.50
2018-09-21T17:48:39.570Z,7.30
2018-09-21T17:51:11.510Z,6.62
2018-09-21T17:53:40.423Z,7.40
2018-09-21T17:56:09.330Z,7.08
2018-09-21T17:58:39.110Z,8.10
2018-09-21T18:01:08.005Z,7.78
2018-09-21T18:03:36.924Z,7.58
2018-09-21T18:06:05.922Z,7.75
2018-09-21T18:08:34.831Z,7.58
2018-09-21T18:11:03.748Z,7.20
2018-09-21T18:13:32.737Z,10.08
2018-09-21T18:16:01.731Z,6.72
2018-09-21T18:18:30.687Z,7.40
2018-09-21T18:20:59.945Z,8.25
2018-09-21T18:23:30.066Z,8.70
2018-09-21T18:25:58.985Z,9.25
2018-09-21T18:28:28.278Z,7.50
2018-09-21T18:30:59.172Z,7.35
2018-09-21T18:33:28.405Z,7.22
2018-09-21T18:35:57.920Z,8.53
2018-09-21T18:38:26.848Z,7.83
2018-09-21T18:40:56.802Z,7.72
2018-09-21T18:43:26.215Z,7.65
2018-09-21T18:45:55.230Z,7.85
2018-09-21T18:48:24.258Z,7.15
2018-09-21T18:50:53.303Z,8.50
2018-09-21T18:53:22.291Z,7.60
2018-09-21T18:55:51.332Z,8.10
2018-09-21T18:58:20.359Z,7.05
2018-09-21T19:00:50.032Z,7.87
2018-09-21T19:03:19.570Z,7.92
2018-09-21T19:05:48.843Z,7.92
2018-09-21T19:08:17.729Z,7.20
2018-09-21T19:10:47.351Z,7.42
2018-09-21T19:13:18.086Z,10.53
2018-09-21T19:15:47.268Z,6.62
2018-09-21T19:18:17.071Z,7.95
2018-09-21T19:20:47.885Z,7.10
2018-09-21T19:23:16.870Z,8.05
2018-09-21T19:25:45.883Z,8.13
2018-09-21T19:28:15.074Z,7.80
2018-09-21T19:30:44.716Z,6.83
2018-09-21T19:33:15.002Z,7.15
2018-09-21T19:35:43.904Z,7.25
2018-09-21T19:38:13.153Z,6.20
2018-09-21T19:40:42.083Z,5.47
2018-09-21T19:43:10.982Z,5.12
2018-09-21T19:45:39.934Z,4.80
2018-09-21T19:48:08.883Z,5.47
2018-09-21T19:50:37.789Z,4.65
2018-09-21T19:53:06.747Z,4.37
2018-09-21T19:55:36.132Z,3.47
2018-09-21T19:58:05.021Z,4.28
2018-09-21T20:00:34.054Z,3.58
2018-09-21T20:03:03.003Z,2.90
2018-09-21T20:05:32.902Z,3.05
2018-09-21T20:08:02.813Z,4.75
2018-09-21T20:10:32.385Z,4.20
2018-09-21T20:13:02.437Z,4.00
2018-09-21T20:15:32.668Z,3.02
2018-09-21T20:18:02.560Z,4.20
2018-09-21T20:20:31.835Z,4.53
2018-09-21T20:23:00.828Z,5.00
2018-09-21T20:25:29.881Z,4.20
2018-09-21T20:27:59.944Z,4.10
2018-09-21T20:30:34.338Z,3.05
2018-09-21T20:33:37.772Z,4.62
2018-09-21T20:36:07.215Z,4.10
2018-09-21T20:38:36.507Z,3.95
2018-09-21T20:41:05.603Z,4.22
2018-09-21T20:43:34.780Z,4.08
2018-09-21T20:46:03.824Z,3.80
2018-09-21T20:48:32.841Z,2.10
2018-09-21T20:51:01.883Z,1.92
2018-09-21T20:53:30.813Z,2.50
2018-09-21T20:55:59.692Z,1.75
2018-09-21T20:58:28.628Z,1.67
2018-09-21T21:00:57.507Z,1.12
2018-09-21T21:03:26.371Z,1.90
2018-09-21T21:05:55.352Z,2.00
2018-09-21T21:08:24.334Z,1.77
2018-09-21T21:10:53.229Z,1.30
2018-09-21T21:13:23.332Z,1.80
2018-09-21T21:15:52.230Z,1.70
2018-09-21T21:18:21.225Z,1.67
2018-09-21T21:20:50.184Z,1.30
2018-09-21T21:23:19.078Z,1.32
2018-09-21T21:25:48.166Z,1.27
2018-09-21T21:28:17.083Z,1.00
2018-09-21T21:30:45.985Z,1.50
2018-09-21T21:33:14.867Z,1.60
2018-09-21T21:35:43.827Z,1.50
2018-09-21T21:38:12.981Z,2.05
2018-09-21T21:40:41.879Z,1.30
2018-09-21T21:43:10.801Z,1.50
2018-09-21T21:48:32.467Z,1.25
2018-09-21T21:51:01.424Z,1.30
2018-09-21T21:53:30.865Z,1.70
2018-09-21T21:55:59.798Z,2.05
2018-09-21T21:58:28.738Z,1.72
2018-09-21T22:01:03.005Z,1.70
2018-09-21T22:03:31.887Z,1.60
2018-09-21T22:06:00.798Z,2.33
2018-09-21T22:08:30.371Z,1.75
2018-09-21T22:10:59.250Z,2.17
2018-09-21T22:13:33.414Z,1.85
2018-09-21T22:16:02.296Z,1.55
2018-09-21T22:18:31.502Z,2.77
2018-09-21T22:21:00.434Z,1.60
2018-09-21T22:23:29.312Z,1.47
2018-09-21T22:25:58.178Z,2.33
2018-09-21T22:28:27.088Z,1.90
2018-09-21T22:30:56.028Z,2.05
2018-09-21T22:33:24.975Z,1.92
2018-09-21T22:35:53.992Z,1.50
2018-09-21T22:38:22.875Z,1.90
2018-09-21T22:40:51.780Z,1.90
2018-09-21T22:43:20.683Z,2.20
2018-09-21T22:45:49.614Z,1.82
2018-09-21T22:48:18.492Z,2.20
2018-09-21T22:50:47.410Z,1.77
2018-09-21T22:53:16.274Z,2.25
2018-09-21T22:55:45.161Z,2.67
2018-09-21T22:58:14.107Z,2.22
2018-09-21T23:00:43.118Z,2.35
2018-09-21T23:03:12.208Z,1.70
2018-09-21T23:05:41.190Z,2.37
2018-09-21T23:08:10.114Z,2.25
2018-09-21T23:10:39.002Z,2.98
2018-09-21T23:13:08.061Z,2.55
2018-09-21T23:15:36.962Z,2.35
2018-09-21T23:18:05.855Z,2.77
2018-09-21T23:20:34.814Z,2.50
2018-09-21T23:23:03.732Z,2.60
2018-09-21T23:25:32.618Z,2.47
2018-09-21T23:28:01.558Z,3.50
2018-09-21T23:30:30.500Z,4.30
2018-09-21T23:32:59.398Z,3.12
2018-09-21T23:35:28.329Z,3.52
2018-09-21T23:37:57.226Z,3.20
2018-09-21T23:40:26.123Z,2.90
2018-09-21T23:42:55.107Z,3.15
2018-09-21T23:45:24.134Z,3.17
2018-09-21T23:47:53.037Z,2.10
2018-09-21T23:50:22.191Z,2.65
2018-09-21T23:52:51.100Z,2.72
2018-09-21T23:55:19.990Z,2.65
2018-09-21T23:57:49.682Z,2.60
